Terminal Aerodrome Forecast
Issued by NWS

Home | Current Version | Previous Version | Text Only | Print | Product List | Glossary On
Versions: 1 2 3 4 5 6 7 8 9 10 11 12 13 14 15 16 17 18 19 20 21 22 23 24 25
000
FTUS43 KGRB 201132
TAFRHI
TAF
KRHI 201132Z 2012/2112 12003KT 4SM BR SCT010 OVC070
      TEMPO 2012/2016 2SM -FZRAPL OVC010
     FM201600 VRB03KT 3SM -RA BR OVC006
     FM210000 10004KT 1SM -DZ BR OVC003
     FM210600 10005KT 1/2SM -DZ FG OVC002=

USA.gov is the U.S. government's official web portal to all federal, state and local government web resources and services.